Lacrosse, WA

2:52 PM PST on January 30, 2015 (GMT -0800)
Fairchild Air Force Base | Change Station
CLOSE
Current Station
Airport
Location: Spokane Fairchild,
Elevation: 2461 ft
Nearby Weather Stations

Elev 2461 ft 47.62 °N, 117.66 °W | Updated 22 minutes ago

Overcast
Overcast
28 °F
Feels Like 25 °F
N
4
Wind Variable Wind from SSE

Today
High -- | Low -- °F
--% Chance of Precip.
Yesterday
High -- | Low -- °F
Precip. -- in
7:18 AM 4:51 PM
Waxing Gibbous, 85% visible
Pressure 30.27 in
Visibility 0.5 miles
Clouds
Windchill 25 °F
Dew Point 28 °F
Humidity 100%
Rainfall 0.00 in
Snow Depth Not available.
UV Not available.
Pollen 2.10 out of 12
Air Quality Not available.
Flu Activity Not available.
SPECI KSKA 302230Z AUTO 16003KT 1/2SM R05/4500FT FZFG VV001 M02/M02 A3027 RMK AO2 VIS 1/2V1 3/4 UPE11UPB15E27

More Conditions Fewer Conditions

Pressure 30.27 in
Visibility 0.5 miles
Clouds
Windchill 25 °F
Dew Point 28 °F
Humidity 100%
Rainfall 0.00 in
Snow Depth Not available.
UV Not available.
Pollen 2.10 out of 12
Air Quality Not available.
Flu Activity Not available.
SPECI KSKA 302230Z AUTO 16003KT 1/2SM R05/4500FT FZFG VV001 M02/M02 A3027 RMK AO2 VIS 1/2V1 3/4 UPE11UPB15E27

More Conditions Fewer Conditions

10-Day Weather Forecast

Almanac

Astronomy

Jan. 30, 2015 Rise Set
Actual Time
Civil Twilight
Nautical Twilight
Astronomical Twilight
Moon
Length of Visible Light
Length of Day
Tomorrow will be .
, % of the Moon is Illuminated

Today's Extremes

State Highs State Lows

Community

WunderPhotos

Upload Photos

1,791,905 photos uploaded!

WunderBlogs® & News

Nearby

Air Quality

  Air Quality AQ Index Pollutant
Not available.

Snow Depth

Station Depth Elevation

Earthquake Activity

City Distance Mag. Time & Date
Minimum magnitude displayed is 2.5.

Coastal Water Temperatures

Place Temperature

Nearby Weather Stations